KSCR/SCR METAR and TAF weather

Enter ICAO airport designator
Station Type Date Time Source
KSCR METAR 2019/10/22 14:15 UTC NOAA

KSCR 221415Z AUTO 14006KT 10SM -RA OVC003 17/17 A2992 RMK AO2 T01660165


Station Type Date Time Source
KSCR Decoded METAR 2019/10/22 14:15 UTC NOAA

Station name not available
Oct 22, 2019 - 10:15 AM EDT / 2019.10.22 1415 UTC
Wind: from the SE (140 degrees) at 7 MPH (6 KT):0
Visibility: 10 mile(s):0
Sky conditions: overcast
Weather: light rain
Temperature: 61.9 F (16.6 C)
Dew Point: 61.7 F (16.5 C)
Relative Humidity: 99%
Pressure (altimeter): 29.92 in. Hg (1013 hPa)
ob: KSCR 221415Z AUTO 14006KT 10SM -RA OVC003 17/17 A2992 RMK AO2 T01660165
cycle: 14

Station Type Date Time Source
KSCR TAF UTC NOAA

Error!

Example: see airport list